createdAt,value
2022-10-09T00:00:43.108Z,6.30
2022-10-09T00:03:13.597Z,6.40
2022-10-09T00:05:44.468Z,6.40
2022-10-09T00:08:14.590Z,6.30
2022-10-09T00:10:46.160Z,6.30
2022-10-09T00:13:17.701Z,6.30
2022-10-09T00:15:49.920Z,6.30
2022-10-09T00:18:20.793Z,6.20
2022-10-09T00:20:51.119Z,6.10
2022-10-09T00:23:21.368Z,6.00
2022-10-09T00:25:56.582Z,6.00
2022-10-09T00:28:36.474Z,5.90
2022-10-09T00:31:09.106Z,5.90
2022-10-09T00:33:39.591Z,5.90
2022-10-09T00:36:12.260Z,5.90
2022-10-09T00:38:42.018Z,5.90
2022-10-09T00:41:13.875Z,5.90
2022-10-09T00:43:48.122Z,5.90
2022-10-09T00:46:33.894Z,6.00
2022-10-09T00:49:16.407Z,5.90
2022-10-09T00:51:48.654Z,6.00
2022-10-09T00:54:23.719Z,5.90
2022-10-09T00:56:54.538Z,5.90
2022-10-09T00:59:26.743Z,5.80
2022-10-09T01:01:57.125Z,5.70
2022-10-09T01:04:31.299Z,5.70
2022-10-09T01:07:18.873Z,5.70
2022-10-09T01:09:56.457Z,5.60
2022-10-09T01:12:41.977Z,5.60
2022-10-09T01:15:18.234Z,5.60
2022-10-09T01:17:57.766Z,5.60
2022-10-09T01:20:44.085Z,5.70
2022-10-09T01:23:44.193Z,5.70
2022-10-09T01:26:46.366Z,5.60
2022-10-09T01:29:20.256Z,5.50
2022-10-09T01:31:52.036Z,5.50
2022-10-09T01:34:24.429Z,5.60
2022-10-09T01:36:55.846Z,5.70
2022-10-09T01:39:25.259Z,5.60
2022-10-09T01:41:56.520Z,5.60
2022-10-09T01:44:30.181Z,5.60
2022-10-09T01:47:01.363Z,5.70
2022-10-09T01:49:46.558Z,5.70
2022-10-09T01:52:25.534Z,5.60
2022-10-09T01:55:04.203Z,5.60
2022-10-09T01:57:42.162Z,5.50
2022-10-09T02:00:15.790Z,5.50
2022-10-09T02:02:47.515Z,5.40
2022-10-09T02:05:24.907Z,5.40
2022-10-09T02:07:56.380Z,5.50
2022-10-09T02:10:26.286Z,5.50
2022-10-09T02:12:58.649Z,5.60
2022-10-09T02:15:33.605Z,5.50
2022-10-09T02:18:11.296Z,5.50
2022-10-09T02:20:45.557Z,5.30
2022-10-09T02:23:18.214Z,5.30
2022-10-09T02:25:48.254Z,5.20
2022-10-09T02:28:18.525Z,5.20
2022-10-09T02:30:58.697Z,5.20
2022-10-09T02:33:33.527Z,5.20
2022-10-09T02:36:03.752Z,5.20
2022-10-09T02:38:33.542Z,5.20
2022-10-09T02:41:03.680Z,5.20
2022-10-09T02:43:33.609Z,5.10
2022-10-09T02:46:05.077Z,5.10
2022-10-09T02:48:34.759Z,5.10
2022-10-09T02:51:05.084Z,5.10
2022-10-09T02:53:35.420Z,5.10
2022-10-09T02:56:05.237Z,5.00
2022-10-09T02:58:34.429Z,5.00
2022-10-09T03:01:06.052Z,5.00
2022-10-09T03:03:36.032Z,5.00
2022-10-09T03:06:09.407Z,5.00
2022-10-09T03:08:40.708Z,5.00
2022-10-09T03:11:14.261Z,5.00
2022-10-09T03:13:52.110Z,5.00
2022-10-09T03:16:26.231Z,5.00
2022-10-09T03:18:58.395Z,5.00
2022-10-09T03:21:29.682Z,4.90
2022-10-09T03:23:59.671Z,5.00
2022-10-09T03:26:30.288Z,5.00
2022-10-09T03:29:00.212Z,4.90
2022-10-09T03:34:21.858Z,5.00
2022-10-09T03:36:51.807Z,4.90
2022-10-09T03:39:21.682Z,4.90
2022-10-09T03:41:51.754Z,4.90
2022-10-09T03:44:22.181Z,4.90
2022-10-09T03:46:53.612Z,4.80
2022-10-09T03:49:23.594Z,4.80
2022-10-09T03:51:56.820Z,4.80
2022-10-09T03:54:31.566Z,4.90
2022-10-09T03:57:01.390Z,4.90
2022-10-09T03:59:31.275Z,4.90
2022-10-09T04:02:02.698Z,4.90
2022-10-09T04:04:32.915Z,4.90
2022-10-09T04:07:02.651Z,4.80
2022-10-09T04:09:34.117Z,4.80
2022-10-09T04:12:03.791Z,4.80
2022-10-09T04:14:33.720Z,4.90
2022-10-09T04:17:04.800Z,4.90
2022-10-09T04:19:36.237Z,4.90
2022-10-09T04:22:06.129Z,4.90
2022-10-09T04:24:37.406Z,4.90
2022-10-09T04:27:07.290Z,4.90
2022-10-09T04:29:36.999Z,4.90
2022-10-09T04:32:08.668Z,5.00
2022-10-09T04:34:38.628Z,4.90
2022-10-09T04:37:08.609Z,4.90
2022-10-09T04:39:40.638Z,4.90
2022-10-09T04:42:11.025Z,4.90
2022-10-09T04:44:41.115Z,4.80
2022-10-09T04:47:12.070Z,4.80
2022-10-09T04:49:41.976Z,4.80
2022-10-09T04:52:12.821Z,4.80
2022-10-09T04:54:42.731Z,4.80
2022-10-09T04:57:13.358Z,4.80
2022-10-09T04:59:43.090Z,4.80
2022-10-09T05:02:14.908Z,4.70
2022-10-09T05:04:45.153Z,4.70
2022-10-09T05:07:15.161Z,4.80
2022-10-09T05:09:44.957Z,4.70
2022-10-09T05:12:14.978Z,4.70
2022-10-09T05:14:44.982Z,4.70
2022-10-09T05:17:19.646Z,4.70
2022-10-09T05:19:52.703Z,4.80
2022-10-09T05:22:23.156Z,4.80
2022-10-09T05:24:53.045Z,4.70
2022-10-09T05:27:23.073Z,4.70
2022-10-09T05:29:58.233Z,4.70
2022-10-09T05:32:29.591Z,4.60
2022-10-09T05:34:59.506Z,4.60
2022-10-09T05:37:29.207Z,4.70
2022-10-09T05:39:59.097Z,4.70
2022-10-09T05:42:29.164Z,4.70
2022-10-09T05:44:58.857Z,4.60
2022-10-09T05:47:33.242Z,4.60
2022-10-09T05:50:05.086Z,4.60
2022-10-09T05:52:36.321Z,4.60
2022-10-09T05:55:06.502Z,4.60
2022-10-09T05:57:36.552Z,4.60
2022-10-09T06:00:08.065Z,4.70
2022-10-09T06:02:39.569Z,4.60
2022-10-09T06:05:11.522Z,4.60
2022-10-09T06:07:41.484Z,4.60
2022-10-09T06:10:12.348Z,4.50
2022-10-09T06:12:42.225Z,4.60
2022-10-09T06:15:12.613Z,4.60
2022-10-09T06:17:43.555Z,4.60
2022-10-09T06:20:13.868Z,4.60
2022-10-09T06:22:43.627Z,4.60
2022-10-09T06:25:14.501Z,4.70
2022-10-09T06:27:47.901Z,4.80
2022-10-09T06:30:17.709Z,4.80
2022-10-09T06:32:50.174Z,4.90
2022-10-09T06:35:20.735Z,5.00
2022-10-09T06:37:50.726Z,5.10
2022-10-09T06:40:20.846Z,5.30
2022-10-09T06:42:51.521Z,5.40
2022-10-09T06:45:21.438Z,5.60
2022-10-09T06:47:52.973Z,5.80
2022-10-09T06:50:23.923Z,5.90
2022-10-09T06:52:53.890Z,5.80
2022-10-09T06:55:27.950Z,5.90
2022-10-09T06:57:58.529Z,6.10
2022-10-09T07:00:28.401Z,6.20
2022-10-09T07:02:59.951Z,6.30
2022-10-09T07:05:30.035Z,6.40
2022-10-09T07:08:00.577Z,6.60
2022-10-09T07:10:30.854Z,6.70
2022-10-09T07:13:00.734Z,6.90
2022-10-09T07:15:30.902Z,6.90
2022-10-09T07:18:03.307Z,6.90
2022-10-09T07:20:37.039Z,7.10
2022-10-09T07:23:07.099Z,7.20
2022-10-09T07:25:40.834Z,7.40
2022-10-09T07:28:11.161Z,7.60
2022-10-09T07:30:41.240Z,7.60
2022-10-09T07:33:12.454Z,7.70
2022-10-09T07:35:42.491Z,7.80
2022-10-09T07:38:12.668Z,8.00
2022-10-09T07:40:42.848Z,8.00
2022-10-09T07:43:12.699Z,8.10
2022-10-09T07:45:42.839Z,8.10
2022-10-09T07:48:14.344Z,8.20
2022-10-09T07:50:46.013Z,8.40
2022-10-09T07:53:20.218Z,8.60
2022-10-09T07:55:54.063Z,8.90
2022-10-09T07:58:26.282Z,8.90
2022-10-09T08:00:56.643Z,9.20
2022-10-09T08:03:29.775Z,9.50
2022-10-09T08:06:00.897Z,9.60
2022-10-09T08:08:31.653Z,9.70
2022-10-09T08:11:01.561Z,9.60
2022-10-09T08:13:31.762Z,9.80
2022-10-09T08:16:01.771Z,10.00
2022-10-09T08:18:33.659Z,10.20
2022-10-09T08:21:05.527Z,10.40
2022-10-09T08:23:35.917Z,10.50
2022-10-09T08:26:15.388Z,10.50
2022-10-09T08:28:45.507Z,10.60
2022-10-09T08:31:17.131Z,10.70
2022-10-09T08:33:49.094Z,10.50
2022-10-09T08:36:19.113Z,10.90
2022-10-09T08:38:49.235Z,11.00
2022-10-09T08:41:45.781Z,11.30
2022-10-09T08:44:30.618Z,11.40
2022-10-09T08:47:11.027Z,11.50
2022-10-09T08:49:49.183Z,11.70
2022-10-09T08:52:29.775Z,12.00
2022-10-09T08:55:05.579Z,12.10
2022-10-09T08:57:40.478Z,12.20
2022-10-09T09:00:16.735Z,12.20
2022-10-09T09:03:08.789Z,12.40
2022-10-09T09:05:47.968Z,12.70
2022-10-09T09:08:30.313Z,12.80
2022-10-09T09:11:19.261Z,13.00
2022-10-09T09:14:09.481Z,13.10
2022-10-09T09:16:45.235Z,13.40
2022-10-09T09:19:34.075Z,13.60
2022-10-09T09:22:12.437Z,13.40
2022-10-09T09:24:50.505Z,13.60
2022-10-09T09:27:22.443Z,13.60
2022-10-09T09:30:02.200Z,13.90
2022-10-09T09:32:34.097Z,14.30
2022-10-09T09:35:19.232Z,14.40
2022-10-09T09:37:52.027Z,14.70
2022-10-09T09:40:36.180Z,14.80
2022-10-09T09:43:13.344Z,14.80
2022-10-09T09:45:50.920Z,14.80
2022-10-09T09:48:24.353Z,15.00
2022-10-09T09:51:16.290Z,15.10
2022-10-09T09:53:49.836Z,15.10
2022-10-09T09:56:20.813Z,15.20
2022-10-09T09:58:53.176Z,15.20
2022-10-09T10:01:26.997Z,15.20
2022-10-09T10:04:01.168Z,15.40
2022-10-09T10:06:37.268Z,15.70
2022-10-09T10:09:14.482Z,16.00
2022-10-09T10:11:55.429Z,15.80
2022-10-09T10:14:27.671Z,15.90
2022-10-09T10:17:02.124Z,15.80
2022-10-09T10:19:38.795Z,16.10
2022-10-09T10:22:24.752Z,16.20
2022-10-09T10:24:58.701Z,16.60
2022-10-09T10:27:36.557Z,16.50
2022-10-09T10:30:14.698Z,16.30
2022-10-09T10:32:54.960Z,16.50
2022-10-09T10:35:28.737Z,16.50
2022-10-09T10:38:06.329Z,16.30
2022-10-09T10:40:40.176Z,16.40
2022-10-09T10:43:16.423Z,16.60
2022-10-09T10:46:02.949Z,16.60
2022-10-09T10:48:35.321Z,16.90
2022-10-09T10:51:20.587Z,17.00
2022-10-09T10:54:02.863Z,16.90
2022-10-09T10:56:39.119Z,16.60
2022-10-09T10:59:26.683Z,16.90
2022-10-09T11:02:31.981Z,17.00
2022-10-09T11:05:15.741Z,16.40
2022-10-09T11:08:00.152Z,16.80
2022-10-09T11:10:42.655Z,17.00
2022-10-09T11:13:21.126Z,17.20
2022-10-09T11:15:59.052Z,17.10
2022-10-09T11:18:49.460Z,16.80
2022-10-09T11:21:34.702Z,16.90
2022-10-09T11:24:31.917Z,17.10
2022-10-09T11:27:08.687Z,17.10
2022-10-09T11:29:56.388Z,17.30
2022-10-09T11:32:32.860Z,17.60
2022-10-09T11:35:08.933Z,17.90
2022-10-09T11:37:44.339Z,17.80
2022-10-09T11:40:20.786Z,18.00
2022-10-09T11:42:56.383Z,17.60
2022-10-09T11:45:33.519Z,17.00
2022-10-09T11:48:11.227Z,16.90
2022-10-09T11:50:50.063Z,16.80
2022-10-09T11:53:23.385Z,17.30
2022-10-09T11:56:02.610Z,17.60
2022-10-09T11:58:35.918Z,17.30
2022-10-09T12:01:25.987Z,17.30
2022-10-09T12:04:03.403Z,17.10
2022-10-09T12:06:45.980Z,17.10
2022-10-09T12:09:23.600Z,17.10
2022-10-09T12:12:07.681Z,17.20
2022-10-09T12:14:44.900Z,17.10
2022-10-09T12:17:34.245Z,16.70
2022-10-09T12:20:22.650Z,17.10
2022-10-09T12:23:21.894Z,17.20
2022-10-09T12:25:49.747Z,17.30
2022-10-09T12:28:39.269Z,17.30
2022-10-09T12:31:17.148Z,17.20
2022-10-09T12:33:53.046Z,16.90
2022-10-09T12:36:29.707Z,16.90
2022-10-09T12:39:12.849Z,17.00
2022-10-09T12:41:46.421Z,17.10
2022-10-09T12:44:24.239Z,17.20
2022-10-09T12:46:55.366Z,17.10
2022-10-09T12:49:30.031Z,17.40
2022-10-09T12:52:01.497Z,17.30
2022-10-09T12:54:43.970Z,17.10
2022-10-09T12:57:17.750Z,17.10
2022-10-09T12:59:49.357Z,17.10
2022-10-09T13:02:22.504Z,17.20
2022-10-09T13:05:03.820Z,17.30
2022-10-09T13:07:34.508Z,17.20
2022-10-09T13:10:09.885Z,17.10
2022-10-09T13:12:41.227Z,17.00
2022-10-09T13:15:30.008Z,17.10
2022-10-09T13:18:01.448Z,16.90
2022-10-09T13:20:36.464Z,17.00
2022-10-09T13:23:08.731Z,17.00
2022-10-09T13:25:41.060Z,17.10
2022-10-09T13:28:13.173Z,17.10
2022-10-09T13:30:45.751Z,17.00
2022-10-09T13:33:21.240Z,17.20
2022-10-09T13:35:53.281Z,16.90
2022-10-09T13:38:23.990Z,16.80
2022-10-09T13:40:56.370Z,16.90
2022-10-09T13:43:28.742Z,17.20
2022-10-09T13:45:58.933Z,17.00
2022-10-09T13:48:29.697Z,16.90
2022-10-09T13:51:04.659Z,17.00
2022-10-09T13:53:36.295Z,16.80
2022-10-09T13:56:09.622Z,17.00
2022-10-09T13:58:39.937Z,16.90
2022-10-09T14:01:13.493Z,16.80
2022-10-09T14:03:45.124Z,16.80
2022-10-09T14:06:22.478Z,16.70
2022-10-09T14:08:53.796Z,16.60
2022-10-09T14:11:27.369Z,16.60
2022-10-09T14:13:59.757Z,16.50
2022-10-09T14:16:31.051Z,16.70
2022-10-09T14:19:02.955Z,16.60
2022-10-09T14:21:32.598Z,16.50
2022-10-09T14:24:14.648Z,16.50
2022-10-09T14:26:51.533Z,16.60
2022-10-09T14:29:22.133Z,16.70
2022-10-09T14:31:53.458Z,16.80
2022-10-09T14:34:24.939Z,16.80
2022-10-09T14:36:56.997Z,16.60
2022-10-09T14:39:26.917Z,16.60
2022-10-09T14:41:57.048Z,16.60
2022-10-09T14:44:27.356Z,16.50
2022-10-09T14:46:59.186Z,16.30
2022-10-09T14:49:31.324Z,16.20
2022-10-09T14:52:07.620Z,16.10
2022-10-09T14:54:38.970Z,16.10
2022-10-09T14:57:09.417Z,16.10
2022-10-09T14:59:43.769Z,16.20
2022-10-09T15:02:16.933Z,16.20
2022-10-09T15:04:45.287Z,16.20
2022-10-09T15:07:19.093Z,16.10
2022-10-09T15:09:52.227Z,16.00
2022-10-09T15:12:22.649Z,15.80
2022-10-09T15:14:53.053Z,15.70
2022-10-09T15:17:23.319Z,15.60
2022-10-09T15:19:54.444Z,15.50
2022-10-09T15:22:26.371Z,15.60
2022-10-09T15:24:57.306Z,15.60
2022-10-09T15:27:27.622Z,15.40
2022-10-09T15:29:57.655Z,15.30
2022-10-09T15:32:27.609Z,15.30
2022-10-09T15:34:57.885Z,15.20
2022-10-09T15:37:29.895Z,15.20
2022-10-09T15:40:00.623Z,15.10
2022-10-09T15:42:30.611Z,15.10
2022-10-09T15:45:00.638Z,15.00
2022-10-09T15:47:50.042Z,15.00
2022-10-09T15:50:22.994Z,14.90
2022-10-09T15:52:56.923Z,14.90
2022-10-09T15:55:27.345Z,14.80
2022-10-09T15:58:00.446Z,14.70
2022-10-09T16:00:30.527Z,14.70
2022-10-09T16:03:00.651Z,14.60
2022-10-09T16:05:31.314Z,14.50
2022-10-09T16:08:02.993Z,14.50
2022-10-09T16:10:34.131Z,14.50
2022-10-09T16:13:04.302Z,14.40
2022-10-09T16:15:34.874Z,14.30
2022-10-09T16:18:03.358Z,14.30
2022-10-09T16:20:34.521Z,14.20
2022-10-09T16:23:06.788Z,13.90
2022-10-09T16:25:38.358Z,13.80
2022-10-09T16:28:10.349Z,13.70
2022-10-09T16:30:43.064Z,13.50
2022-10-09T16:33:13.702Z,13.20
2022-10-09T16:35:46.681Z,13.00
2022-10-09T16:38:21.298Z,12.90
2022-10-09T16:41:07.865Z,12.80
2022-10-09T16:43:39.599Z,12.70
2022-10-09T16:46:18.335Z,12.50
2022-10-09T16:48:50.658Z,12.50
2022-10-09T16:51:22.977Z,12.50
2022-10-09T16:53:56.020Z,12.20
2022-10-09T16:56:28.306Z,12.20
2022-10-09T16:59:00.170Z,12.00
2022-10-09T17:01:30.272Z,11.80
2022-10-09T17:04:01.037Z,11.60
2022-10-09T17:06:33.571Z,11.60
2022-10-09T17:09:13.741Z,11.50
2022-10-09T17:11:47.859Z,11.50
2022-10-09T17:14:18.278Z,11.40
2022-10-09T17:16:48.917Z,11.20
2022-10-09T17:19:19.134Z,11.20
2022-10-09T17:21:50.010Z,11.20
2022-10-09T17:24:21.831Z,11.00
2022-10-09T17:26:51.764Z,11.00
2022-10-09T17:29:22.912Z,10.90
2022-10-09T17:31:53.050Z,10.90
2022-10-09T17:34:22.966Z,10.80
2022-10-09T17:36:53.190Z,10.80
2022-10-09T17:39:24.506Z,10.70
2022-10-09T17:41:54.326Z,10.70
2022-10-09T17:44:24.233Z,10.70
2022-10-09T17:46:55.059Z,10.60
2022-10-09T17:49:25.088Z,10.60
2022-10-09T17:51:54.913Z,10.60
2022-10-09T17:54:26.366Z,10.60
2022-10-09T17:56:56.264Z,10.60
2022-10-09T17:59:26.322Z,10.70
2022-10-09T18:01:57.935Z,10.70
2022-10-09T18:04:28.684Z,10.60
2022-10-09T18:06:58.983Z,10.60
2022-10-09T18:09:30.060Z,10.50
2022-10-09T18:12:00.139Z,10.60
2022-10-09T18:14:30.054Z,10.70
2022-10-09T18:17:00.271Z,10.70
2022-10-09T18:19:30.288Z,10.70
2022-10-09T18:22:04.516Z,10.70
2022-10-09T18:24:36.436Z,10.60
2022-10-09T18:27:06.519Z,10.60
2022-10-09T18:29:37.458Z,10.50
2022-10-09T18:32:07.579Z,10.50
2022-10-09T18:34:39.314Z,10.40
2022-10-09T18:37:10.108Z,10.40
2022-10-09T18:39:41.523Z,10.40
2022-10-09T18:42:11.474Z,10.40
2022-10-09T18:44:42.893Z,10.40
2022-10-09T18:47:17.307Z,10.40
2022-10-09T18:49:51.666Z,10.40
2022-10-09T18:52:21.916Z,10.40
2022-10-09T18:54:55.241Z,10.30
2022-10-09T18:57:29.055Z,10.30
2022-10-09T18:59:59.460Z,10.20
2022-10-09T19:02:29.647Z,10.10
2022-10-09T19:04:59.479Z,10.10
2022-10-09T19:07:29.852Z,10.10
2022-10-09T19:10:01.371Z,10.10
2022-10-09T19:12:31.612Z,10.00
2022-10-09T19:15:08.317Z,10.00
2022-10-09T19:17:41.172Z,10.10
2022-10-09T19:20:12.031Z,10.00
2022-10-09T19:22:42.224Z,10.00
2022-10-09T19:25:13.799Z,10.00
2022-10-09T19:27:43.709Z,10.00
2022-10-09T19:30:15.587Z,9.90
2022-10-09T19:32:45.915Z,9.90
2022-10-09T19:35:15.888Z,9.90
2022-10-09T19:37:45.469Z,9.90
2022-10-09T19:40:17.806Z,9.90
2022-10-09T19:42:48.087Z,9.80
2022-10-09T19:45:19.362Z,9.60
2022-10-09T19:47:53.564Z,9.50
2022-10-09T19:50:24.541Z,9.40
2022-10-09T19:52:55.136Z,9.30
2022-10-09T19:55:30.831Z,9.30
2022-10-09T19:58:02.453Z,9.10
2022-10-09T20:00:33.467Z,9.10
2022-10-09T20:03:04.266Z,9.10
2022-10-09T20:05:35.407Z,9.20
2022-10-09T20:08:05.588Z,9.10
2022-10-09T20:10:41.776Z,9.20
2022-10-09T20:13:14.328Z,9.10
2022-10-09T20:15:44.654Z,9.10
2022-10-09T20:18:14.453Z,9.10
2022-10-09T20:20:49.947Z,9.20
2022-10-09T20:23:20.004Z,9.30
2022-10-09T20:25:59.232Z,9.40
2022-10-09T20:28:31.995Z,9.50
2022-10-09T20:31:06.455Z,9.60
2022-10-09T20:33:37.516Z,9.40
2022-10-09T20:36:08.685Z,9.40
2022-10-09T20:38:37.454Z,9.40
2022-10-09T20:41:10.433Z,9.30
2022-10-09T20:43:41.134Z,9.30
2022-10-09T20:46:13.473Z,9.30
2022-10-09T20:48:43.978Z,9.20
2022-10-09T20:51:14.285Z,9.20
2022-10-09T20:53:44.201Z,9.30
2022-10-09T20:56:17.167Z,9.20
2022-10-09T20:58:47.665Z,9.10
2022-10-09T21:01:17.737Z,8.90
2022-10-09T21:03:48.075Z,9.00
2022-10-09T21:06:20.952Z,9.00
2022-10-09T21:08:51.288Z,9.00
2022-10-09T21:11:23.031Z,9.10
2022-10-09T21:13:53.765Z,9.10
2022-10-09T21:16:25.409Z,9.10
2022-10-09T21:18:57.491Z,9.00
2022-10-09T21:21:28.858Z,9.00
2022-10-09T21:24:00.302Z,9.00
2022-10-09T21:26:35.512Z,8.90
2022-10-09T21:29:07.499Z,8.70
2022-10-09T21:31:37.657Z,8.70
2022-10-09T21:34:07.408Z,8.60
2022-10-09T21:36:56.246Z,8.60
2022-10-09T21:39:31.501Z,8.50
2022-10-09T21:42:03.460Z,8.30
2022-10-09T21:44:33.189Z,8.30
2022-10-09T21:47:04.135Z,8.30
2022-10-09T21:49:33.934Z,8.30
2022-10-09T21:52:03.979Z,8.30
2022-10-09T21:54:36.549Z,8.30
2022-10-09T21:57:06.031Z,8.30
2022-10-09T21:59:35.856Z,8.30
2022-10-09T22:02:06.509Z,8.40
2022-10-09T22:04:36.510Z,8.40
2022-10-09T22:07:06.224Z,8.40
2022-10-09T22:09:36.179Z,8.30
2022-10-09T22:12:07.693Z,8.30
2022-10-09T22:14:39.758Z,8.40
2022-10-09T22:17:09.859Z,8.50
2022-10-09T22:19:39.771Z,8.50
2022-10-09T22:22:10.316Z,8.50
2022-10-09T22:24:44.274Z,8.50
2022-10-09T22:27:16.277Z,8.50
2022-10-09T22:29:52.248Z,8.50
2022-10-09T22:32:22.277Z,8.50
2022-10-09T22:34:53.461Z,8.50
2022-10-09T22:37:23.342Z,8.50
2022-10-09T22:39:53.296Z,8.50
2022-10-09T22:42:24.917Z,8.50
2022-10-09T22:44:55.225Z,8.50
2022-10-09T22:47:25.360Z,8.60
2022-10-09T22:49:57.312Z,8.60
2022-10-09T22:52:27.353Z,8.50
2022-10-09T22:54:57.924Z,8.50
2022-10-09T22:57:29.050Z,8.40
2022-10-09T22:59:59.028Z,8.40
2022-10-09T23:02:28.919Z,8.40
2022-10-09T23:04:58.869Z,8.30
2022-10-09T23:07:28.984Z,8.30
2022-10-09T23:09:58.785Z,8.30
2022-10-09T23:12:30.045Z,8.50
2022-10-09T23:15:00.141Z,8.50
2022-10-09T23:17:30.093Z,8.50
2022-10-09T23:20:02.259Z,8.60
2022-10-09T23:22:32.355Z,8.70
2022-10-09T23:25:00.544Z,8.60
2022-10-09T23:27:31.891Z,8.30
2022-10-09T23:30:01.885Z,8.00
2022-10-09T23:32:32.319Z,8.20
2022-10-09T23:35:02.278Z,8.20
2022-10-09T23:37:32.411Z,8.40
2022-10-09T23:40:02.851Z,8.40
2022-10-09T23:42:33.790Z,8.60
2022-10-09T23:45:03.665Z,8.50
2022-10-09T23:47:33.626Z,8.50
2022-10-09T23:50:03.499Z,8.60
2022-10-09T23:52:33.497Z,8.60
2022-10-09T23:55:03.297Z,8.50
2022-10-09T23:57:39.903Z,8.50
